Palm Beach International Airport
KPBI : now visible

Airfield :











YOU CAN JOIN US ON...

 
LOGIN :

Register | Disclaimer

   EN    FR    IT 

 









Legend :    VFR   Marginal VFR   IFR   Intensive IFR   Very Intensive IFR
Visi :
Ceiling :
>= 8 km
>= 3000ft
5 to 8 km
1000 to 3000 ft
1500m to 5 km
500 to 1000 ft
800 to 1500m
200 to 500 ft
< 800m
< 200 ft
Symbols :   Thunderstorms  Fog  Heavy snow  Heavy precipitations  Wind > 20 kt






- Airport Elevation : 19 ft
- IATA code : PBI


KPBI - Palm Beach International

CURRENT METAR :
  • 041553Z 18006KT 10SM SCT029CB BKN036 BKN047 31/24 A3001 RMK AO2 LTG DSNT SW SLP160 CB SW NW MOV NE CB DSNT N SW T03060244

EXPIRED METARs :
  • 041453Z 23007KT 10SM SCT024CB BKN032 BKN060 29/25 A3001 RMK AO2 LTG DSNT SW SLP161 CB SW-NW MOV NE CB DSNT NE SW T02940250 51011
  • 041353Z 21005KT 10SM SCT017TCU SCT026 BKN031 28/26 A3000 RMK AO2 SLP159 TCU ALQDS CB DSNT NE-E T02830256

TAF KPBI
Valid from the 04 at 15:00 until the 05 at 12:00 UTC


041507Z 0415/0512 23010KT P6SM VCTS SCT025CB BKN035
TEMPO 0415/0418 VRB10G20KT 3SM TSRA BKN025CB
FM041800 17010KT P6SM VCTS SCT025CB BKN035
FM050300 VRB04KT P6SM SCT030 SCT250
KZMA FIR / North America



MET'MAP, your aeronautical weather chart ! - Copyright ORBIFLY December 2007 - Disclaimer

ORBIFLY MET'MAP TEAM :

Programming & Development : Alexandra Zaïnal
Concept & original design : Baudouin d'Aumeries
Assistance for programming : Marc-Olivier Méhu
Technical & hardware support : Manuel Goepfert

Contact : metmap@orbifly.com




SOURCES & CREDITS :

   NOAA       Earth
Advisory